Terminal Aerodrome Forecast
Issued by NWS

Home | Current Version | Previous Version | Text Only | Print | Product List | Glossary On
Versions: 1 2 3 4 5 6 7 8 9 10 11 12 13 14 15 16 17 18 19 20 21 22 23 24
840
FTUS43 KILX 280059 AAA
TAFCMI
TAF AMD
KCMI 280059Z 2801/2824 18014G21KT P6SM -SHRA VCTS SCT030CB OVC080
      TEMPO 2801/2802 1SM TSRA BR BKN020CB
     FM280300 16010KT P6SM OVC080
     FM280800 17011KT P6SM VCSH SCT020 OVC040
     FM281500 19015G22KT P6SM OVC045=

USA.gov is the U.S. government's official web portal to all federal, state and local government web resources and services.